createdAt,value
2018-05-07T00:00:37.197Z,13.49
2018-05-07T00:01:37.180Z,13.46
2018-05-07T00:02:37.230Z,13.59
2018-05-07T00:03:37.178Z,13.55
2018-05-07T00:04:37.185Z,13.51
2018-05-07T00:05:37.170Z,13.55
2018-05-07T00:06:37.163Z,13.52
2018-05-07T00:07:37.161Z,13.46
2018-05-07T00:08:37.153Z,13.43
2018-05-07T00:09:37.189Z,13.40
2018-05-07T00:10:37.144Z,13.41
2018-05-07T00:11:37.168Z,13.43
2018-05-07T00:12:37.140Z,13.40
2018-05-07T00:13:37.127Z,13.29
2018-05-07T00:14:37.149Z,13.37
2018-05-07T00:15:37.198Z,13.32
2018-05-07T00:16:37.126Z,13.36
2018-05-07T00:17:37.120Z,13.43
2018-05-07T00:18:37.096Z,13.20
2018-05-07T00:19:37.101Z,13.32
2018-05-07T00:20:37.197Z,13.30
2018-05-07T00:21:37.107Z,13.33
2018-05-07T00:22:37.118Z,13.20
2018-05-07T00:23:37.091Z,13.33
2018-05-07T00:24:37.090Z,13.17
2018-05-07T00:25:37.076Z,13.25
2018-05-07T00:26:37.138Z,13.12
2018-05-07T00:27:37.067Z,13.15
2018-05-07T00:28:37.063Z,13.15
2018-05-07T00:29:37.060Z,13.20
2018-05-07T00:30:37.064Z,13.24
2018-05-07T00:31:37.080Z,13.20
2018-05-07T00:32:37.044Z,13.20
2018-05-07T00:33:37.043Z,13.00
2018-05-07T00:34:37.038Z,13.11
2018-05-07T00:35:37.035Z,13.17
2018-05-07T00:36:37.062Z,13.04
2018-05-07T00:37:37.017Z,13.02
2018-05-07T00:38:37.013Z,13.03
2018-05-07T00:39:37.013Z,12.97
2018-05-07T00:40:37.009Z,12.85
2018-05-07T00:41:37.001Z,12.95
2018-05-07T00:42:37.001Z,13.03
2018-05-07T00:43:36.993Z,12.95
2018-05-07T00:44:36.999Z,12.93
2018-05-07T00:45:36.996Z,13.02
2018-05-07T00:46:36.989Z,13.11
2018-05-07T00:47:36.990Z,13.14
2018-05-07T00:48:36.987Z,13.14
2018-05-07T00:49:36.977Z,13.02
2018-05-07T00:50:36.973Z,13.12
2018-05-07T00:51:36.961Z,13.09
2018-05-07T00:52:36.978Z,13.06
2018-05-07T00:53:36.965Z,12.99
2018-05-07T00:54:36.953Z,12.93
2018-05-07T00:55:36.958Z,12.97
2018-05-07T00:56:36.946Z,12.87
2018-05-07T00:57:36.940Z,12.96
2018-05-07T00:58:36.931Z,13.02
2018-05-07T00:59:36.932Z,12.97
2018-05-07T01:00:36.933Z,12.84
2018-05-07T01:01:36.917Z,13.02
2018-05-07T01:02:36.916Z,12.96
2018-05-07T01:03:36.902Z,12.96
2018-05-07T01:04:36.907Z,12.82
2018-05-07T01:05:36.903Z,12.92
2018-05-07T01:06:36.900Z,12.87
2018-05-07T01:07:36.894Z,12.84
2018-05-07T01:08:36.885Z,12.88
2018-05-07T01:09:36.879Z,12.82
2018-05-07T01:10:36.874Z,12.82
2018-05-07T01:11:36.875Z,12.79
2018-05-07T01:12:36.860Z,12.75
2018-05-07T01:13:37.361Z,12.82
2018-05-07T01:14:37.375Z,12.79
2018-05-07T01:15:37.372Z,12.77
2018-05-07T01:17:36.849Z,12.70
2018-05-07T01:18:36.854Z,12.66
2018-05-07T01:19:36.867Z,12.63
2018-05-07T01:20:36.841Z,12.56
2018-05-07T01:21:36.829Z,12.64
2018-05-07T01:22:36.839Z,12.56
2018-05-07T01:23:57.825Z,12.62
2018-05-07T01:24:36.849Z,12.52
2018-05-07T01:25:36.812Z,12.51
2018-05-07T01:26:36.829Z,12.54
2018-05-07T01:27:36.804Z,12.52
2018-05-07T01:28:36.814Z,12.48
2018-05-07T01:29:57.805Z,12.48
2018-05-07T02:02:00.910Z,11.93
2018-05-07T02:03:00.880Z,11.89
2018-05-07T02:04:53.749Z,11.89
2018-05-07T02:05:53.738Z,11.89
2018-05-07T02:07:46.650Z,11.93
2018-05-07T02:08:46.604Z,11.83
2018-05-07T02:10:39.567Z,11.78
2018-05-07T02:11:39.546Z,11.90
2018-05-07T02:13:32.500Z,11.93
2018-05-07T02:14:32.471Z,11.89
2018-05-07T02:16:25.378Z,11.86
2018-05-07T02:17:25.363Z,11.78
2018-05-07T02:19:18.295Z,11.75
2018-05-07T02:20:18.274Z,11.77
2018-05-07T02:22:11.186Z,11.82
2018-05-07T02:23:11.167Z,11.75
2018-05-07T02:25:04.110Z,11.74
2018-05-07T02:26:04.084Z,11.67
2018-05-07T02:27:57.002Z,11.70
2018-05-07T02:28:56.977Z,11.67
2018-05-07T02:30:49.908Z,11.74
2018-05-07T02:31:49.894Z,11.68
2018-05-07T02:33:42.803Z,11.64
2018-05-07T02:34:42.787Z,11.59
2018-05-07T02:36:36.739Z,11.64
2018-05-07T02:37:36.727Z,11.71
2018-05-07T02:39:29.634Z,11.59
2018-05-07T02:40:29.612Z,11.72
2018-05-07T02:42:22.644Z,11.75
2018-05-07T02:43:22.528Z,11.65
2018-05-07T02:45:15.448Z,11.62
2018-05-07T02:46:15.432Z,11.62
2018-05-07T02:48:08.364Z,11.61
2018-05-07T02:49:08.356Z,11.56
2018-05-07T02:51:01.241Z,11.53
2018-05-07T02:52:01.219Z,11.61
2018-05-07T02:53:54.178Z,11.57
2018-05-07T02:54:54.143Z,11.52
2018-05-07T02:56:47.037Z,11.50
2018-05-07T02:57:47.018Z,11.46
2018-05-07T02:59:39.946Z,11.46
2018-05-07T03:00:39.917Z,11.39
2018-05-07T03:02:32.814Z,11.31
2018-05-07T03:03:32.798Z,11.46
2018-05-07T03:05:25.706Z,11.31
2018-05-07T03:06:25.679Z,11.46
2018-05-07T03:08:18.626Z,11.39
2018-05-07T03:09:18.612Z,11.49
2018-05-07T03:11:11.508Z,11.47
2018-05-07T03:12:11.500Z,11.36
2018-05-07T03:14:04.424Z,11.27
2018-05-07T03:15:04.414Z,11.24
2018-05-07T03:16:57.315Z,11.29
2018-05-07T03:17:57.292Z,11.32
2018-05-07T03:19:50.235Z,11.29
2018-05-07T03:20:50.222Z,11.31
2018-05-07T03:22:43.121Z,11.21
2018-05-07T03:23:43.097Z,11.25
2018-05-07T03:25:36.049Z,11.29
2018-05-07T03:26:36.027Z,11.27
2018-05-07T03:28:28.918Z,11.24
2018-05-07T03:29:28.904Z,11.14
2018-05-07T03:31:21.849Z,11.16
2018-05-07T03:32:21.827Z,11.13
2018-05-07T03:35:05.686Z,11.13
2018-05-07T03:36:05.665Z,11.16
2018-05-07T03:37:58.579Z,10.99
2018-05-07T03:38:58.559Z,11.06
2018-05-07T03:40:51.514Z,10.96
2018-05-07T03:41:51.485Z,10.94
2018-05-07T03:43:44.375Z,10.80
2018-05-07T03:44:44.368Z,10.81
2018-05-07T03:46:37.314Z,10.88
2018-05-07T03:47:37.294Z,10.83
2018-05-07T03:49:30.183Z,10.80
2018-05-07T03:50:30.167Z,10.88
2018-05-07T03:52:23.087Z,10.91
2018-05-07T03:53:23.063Z,10.80
2018-05-07T03:55:15.968Z,10.78
2018-05-07T03:56:15.949Z,10.78
2018-05-07T03:58:08.861Z,10.86
2018-05-07T03:59:08.833Z,10.78
2018-05-07T04:01:01.767Z,10.78
2018-05-07T04:02:01.759Z,10.68
2018-05-07T04:03:54.652Z,10.74
2018-05-07T04:04:54.617Z,10.55
2018-05-07T04:06:47.567Z,10.65
2018-05-07T04:07:47.551Z,10.70
2018-05-07T04:09:40.499Z,10.74
2018-05-07T04:10:40.490Z,10.73
2018-05-07T04:12:33.471Z,10.80
2018-05-07T04:13:33.421Z,10.76
2018-05-07T04:15:26.327Z,10.76
2018-05-07T04:16:26.309Z,10.83
2018-05-07T04:18:19.252Z,10.84
2018-05-07T04:19:19.244Z,10.84
2018-05-07T04:21:12.143Z,10.91
2018-05-07T04:22:12.128Z,10.83
2018-05-07T04:24:05.109Z,10.89
2018-05-07T04:25:05.087Z,10.94
2018-05-07T04:26:58.014Z,10.95
2018-05-07T04:27:58.001Z,10.99
2018-05-07T04:29:50.918Z,11.10
2018-05-07T04:30:50.899Z,10.95
2018-05-07T04:32:43.858Z,11.07
2018-05-07T04:33:43.884Z,11.11
2018-05-07T04:35:36.825Z,11.06
2018-05-07T04:36:36.802Z,11.16
2018-05-07T04:38:29.771Z,11.09
2018-05-07T04:39:29.755Z,11.07
2018-05-07T04:41:22.730Z,11.09
2018-05-07T04:42:22.707Z,11.10
2018-05-07T04:44:15.684Z,11.20
2018-05-07T04:45:15.661Z,11.19
2018-05-07T04:47:08.633Z,11.17
2018-05-07T04:48:08.617Z,11.29
2018-05-07T04:50:01.620Z,11.32
2018-05-07T04:51:01.590Z,11.38
2018-05-07T04:52:54.638Z,11.36
2018-05-07T04:53:54.626Z,11.41
2018-05-07T04:55:47.547Z,11.44
2018-05-07T04:56:47.530Z,11.46
2018-05-07T04:58:40.422Z,11.53
2018-05-07T04:59:40.427Z,11.47
2018-05-07T05:01:33.340Z,11.36
2018-05-07T05:02:33.319Z,11.43
2018-05-07T05:05:17.317Z,11.49
2018-05-07T05:06:17.319Z,11.49
2018-05-07T05:08:10.243Z,11.50
2018-05-07T05:09:10.186Z,11.41
2018-05-07T05:11:03.092Z,11.57
2018-05-07T05:12:03.069Z,11.64
2018-05-07T05:13:55.972Z,11.61
2018-05-07T05:14:55.960Z,11.64
2018-05-07T05:16:48.981Z,11.57
2018-05-07T05:17:48.959Z,11.53
2018-05-07T05:19:41.851Z,11.62
2018-05-07T05:20:41.835Z,11.59
2018-05-07T05:22:34.795Z,11.77
2018-05-07T05:23:34.769Z,11.72
2018-05-07T05:25:27.731Z,11.64
2018-05-07T05:26:27.713Z,11.74
2018-05-07T05:28:20.667Z,11.70
2018-05-07T05:29:20.634Z,11.80
2018-05-07T05:31:13.524Z,11.96
2018-05-07T05:32:13.499Z,11.90
2018-05-07T05:34:06.395Z,11.89
2018-05-07T05:35:06.381Z,11.96
2018-05-07T05:36:59.294Z,12.01
2018-05-07T05:37:59.277Z,11.90
2018-05-07T05:39:52.188Z,12.06
2018-05-07T05:40:52.145Z,12.12
2018-05-07T05:42:45.067Z,12.16
2018-05-07T05:43:45.151Z,12.31
2018-05-07T05:45:37.957Z,12.29
2018-05-07T05:46:37.942Z,12.30
2018-05-07T05:48:30.859Z,12.54
2018-05-07T05:49:30.822Z,12.38
2018-05-07T05:51:23.759Z,12.37
2018-05-07T05:52:23.722Z,12.54
2018-05-07T05:54:16.750Z,12.51
2018-05-07T05:55:16.747Z,12.31
2018-05-07T05:57:09.642Z,12.52
2018-05-07T05:58:09.627Z,12.57
2018-05-07T06:00:02.552Z,12.52
2018-05-07T06:01:02.523Z,12.54
2018-05-07T06:02:55.460Z,12.97
2018-05-07T06:03:55.528Z,12.87
2018-05-07T06:05:48.361Z,12.81
2018-05-07T06:06:48.342Z,12.88
2018-05-07T06:07:48.329Z,13.07
2018-05-07T06:08:48.326Z,13.02
2018-05-07T06:09:48.325Z,12.99
2018-05-07T06:10:48.350Z,13.12
2018-05-07T06:11:48.316Z,13.14
2018-05-07T06:12:48.316Z,13.30
2018-05-07T06:13:48.307Z,13.30
2018-05-07T06:14:48.325Z,13.38
2018-05-07T06:15:48.306Z,13.43
2018-05-07T06:16:48.299Z,13.22
2018-05-07T06:17:48.293Z,13.40
2018-05-07T06:18:48.295Z,13.27
2018-05-07T06:19:48.289Z,13.36
2018-05-07T06:20:48.293Z,13.41
2018-05-07T06:21:48.283Z,13.37
2018-05-07T06:22:48.282Z,13.52
2018-05-07T06:23:48.279Z,13.36
2018-05-07T06:24:48.275Z,13.41
2018-05-07T06:25:48.271Z,13.59
2018-05-07T06:26:48.284Z,13.74
2018-05-07T06:27:48.287Z,13.88
2018-05-07T06:28:48.261Z,14.13
2018-05-07T06:29:48.260Z,14.28
2018-05-07T06:30:48.257Z,13.98
2018-05-07T06:31:48.251Z,14.10
2018-05-07T06:32:48.261Z,13.99
2018-05-07T06:33:48.246Z,13.95
2018-05-07T06:34:48.234Z,14.21
2018-05-07T06:35:48.235Z,14.16
2018-05-07T06:36:48.239Z,14.17
2018-05-07T06:37:48.236Z,14.17
2018-05-07T06:38:48.231Z,14.34
2018-05-07T06:39:48.233Z,14.52
2018-05-07T06:40:48.225Z,14.67
2018-05-07T06:41:48.213Z,14.68
2018-05-07T06:42:48.222Z,14.37
2018-05-07T06:43:48.214Z,14.35
2018-05-07T06:44:48.216Z,14.69
2018-05-07T06:45:48.225Z,14.98
2018-05-07T06:46:48.207Z,14.84
2018-05-07T06:47:48.223Z,14.69
2018-05-07T06:48:48.207Z,14.91
2018-05-07T06:49:48.201Z,15.12
2018-05-07T06:50:48.202Z,15.17
2018-05-07T06:51:48.196Z,15.02
2018-05-07T06:52:48.193Z,15.12
2018-05-07T06:53:48.197Z,15.06
2018-05-07T06:54:48.189Z,15.13
2018-05-07T06:55:48.191Z,15.43
2018-05-07T06:56:48.187Z,15.70
2018-05-07T06:57:48.182Z,15.89
2018-05-07T06:58:48.179Z,15.76
2018-05-07T06:59:48.184Z,15.93
2018-05-07T07:00:48.177Z,16.11
2018-05-07T07:01:48.172Z,15.81
2018-05-07T07:02:48.446Z,16.11
2018-05-07T07:03:48.171Z,16.00
2018-05-07T07:04:48.168Z,16.12
2018-05-07T07:05:48.178Z,16.04
2018-05-07T07:06:48.154Z,15.81
2018-05-07T07:07:48.166Z,15.82
2018-05-07T07:08:48.164Z,16.20
2018-05-07T07:09:48.155Z,16.42
2018-05-07T07:10:48.151Z,17.46
2018-05-07T07:11:48.153Z,17.70
2018-05-07T07:12:48.148Z,17.66
2018-05-07T07:13:48.148Z,17.73
2018-05-07T07:14:48.146Z,18.02
2018-05-07T07:15:48.146Z,18.39
2018-05-07T07:16:48.148Z,18.31
2018-05-07T07:17:48.147Z,18.06
2018-05-07T07:18:48.148Z,18.15
2018-05-07T07:19:48.153Z,18.24
2018-05-07T07:20:48.174Z,17.92
2018-05-07T07:21:48.211Z,18.03
2018-05-07T07:22:48.163Z,18.13
2018-05-07T07:23:48.179Z,18.15
2018-05-07T07:24:48.174Z,18.17
2018-05-07T07:25:48.183Z,18.27
2018-05-07T07:26:48.186Z,18.28
2018-05-07T07:27:48.199Z,17.94
2018-05-07T07:28:48.199Z,18.50
2018-05-07T07:29:48.210Z,18.43
2018-05-07T07:30:48.213Z,18.70
2018-05-07T07:31:48.229Z,18.50
2018-05-07T07:32:48.227Z,18.37
2018-05-07T07:33:48.303Z,18.98
2018-05-07T07:34:48.264Z,18.99
2018-05-07T07:35:48.257Z,18.77
2018-05-07T07:36:48.262Z,18.49
2018-05-07T07:37:48.266Z,18.58
2018-05-07T07:38:48.280Z,18.97
2018-05-07T07:39:48.284Z,19.39
2018-05-07T07:40:48.292Z,19.32
2018-05-07T07:41:48.306Z,18.76
2018-05-07T07:42:48.307Z,18.40
2018-05-07T07:43:48.314Z,18.40
2018-05-07T07:44:48.342Z,18.21
2018-05-07T07:45:48.356Z,18.43
2018-05-07T07:46:48.345Z,18.19
2018-05-07T07:47:48.370Z,18.74
2018-05-07T07:48:48.384Z,19.01
2018-05-07T07:49:48.381Z,18.76
2018-05-07T07:50:48.392Z,19.31
2018-05-07T07:51:48.403Z,19.47
2018-05-07T07:52:48.412Z,19.23
2018-05-07T07:53:48.442Z,20.02
2018-05-07T07:54:48.429Z,20.38
2018-05-07T07:55:48.437Z,20.47
2018-05-07T07:56:48.456Z,20.30
2018-05-07T07:57:48.466Z,19.97
2018-05-07T07:58:48.472Z,19.87
2018-05-07T07:59:48.487Z,20.64
2018-05-07T08:00:48.502Z,21.32
2018-05-07T08:01:48.506Z,21.24
2018-05-07T08:02:48.514Z,21.13
2018-05-07T08:03:48.533Z,21.19
2018-05-07T08:04:48.551Z,20.66
2018-05-07T08:05:48.563Z,20.74
2018-05-07T08:06:48.580Z,21.08
2018-05-07T08:07:48.592Z,20.89
2018-05-07T08:08:48.594Z,20.71
2018-05-07T08:09:48.603Z,21.01
2018-05-07T08:10:48.617Z,20.53
2018-05-07T08:11:48.630Z,20.79
2018-05-07T08:12:48.644Z,21.36
2018-05-07T08:13:48.642Z,21.32
2018-05-07T08:14:48.660Z,21.46
2018-05-07T08:15:48.701Z,21.53
2018-05-07T08:16:48.696Z,20.87
2018-05-07T08:17:48.710Z,20.87
2018-05-07T08:18:48.716Z,20.77
2018-05-07T08:19:48.734Z,20.76
2018-05-07T08:20:49.414Z,21.29
2018-05-07T08:21:48.767Z,21.90
2018-05-07T08:22:48.774Z,21.41
2018-05-07T08:23:48.782Z,21.30
2018-05-07T08:24:48.837Z,21.64
2018-05-07T08:25:48.818Z,20.76
2018-05-07T08:26:48.837Z,21.66
2018-05-07T08:27:48.835Z,21.44
2018-05-07T08:28:48.845Z,22.06
2018-05-07T08:29:48.857Z,22.77
2018-05-07T08:30:48.862Z,22.60
2018-05-07T08:31:48.883Z,21.41
2018-05-07T08:32:48.899Z,21.29
2018-05-07T08:33:48.913Z,21.76
2018-05-07T08:34:49.849Z,21.78
2018-05-07T08:35:49.850Z,22.37
2018-05-07T08:36:49.856Z,22.28
2018-05-07T08:37:48.968Z,22.67
2018-05-07T08:38:48.971Z,22.34
2018-05-07T08:39:49.012Z,23.17
2018-05-07T08:40:49.004Z,22.64
2018-05-07T08:41:49.027Z,21.82
2018-05-07T08:42:49.028Z,21.85
2018-05-07T08:43:49.040Z,22.37
2018-05-07T08:44:49.053Z,23.04
2018-05-07T08:45:49.064Z,23.70
2018-05-07T08:46:49.086Z,23.50
2018-05-07T08:47:49.099Z,22.90
2018-05-07T08:48:49.115Z,22.82
2018-05-07T08:49:49.141Z,22.86
2018-05-07T08:50:49.160Z,22.96
2018-05-07T08:51:49.157Z,22.86
2018-05-07T08:52:49.223Z,23.14
2018-05-07T08:53:49.202Z,22.59
2018-05-07T08:54:49.202Z,22.01
2018-05-07T08:55:49.222Z,21.81
2018-05-07T08:56:49.240Z,22.43
2018-05-07T08:57:49.239Z,23.23
2018-05-07T08:58:49.257Z,23.76
2018-05-07T08:59:49.279Z,24.13
2018-05-07T09:00:49.292Z,23.79
2018-05-07T09:01:49.307Z,23.04
2018-05-07T09:02:49.321Z,23.14
2018-05-07T09:03:49.336Z,23.14
2018-05-07T09:04:49.348Z,22.83
2018-05-07T09:05:49.374Z,22.99
2018-05-07T09:06:49.385Z,22.49
2018-05-07T09:07:49.397Z,22.62
2018-05-07T09:08:49.413Z,22.52
2018-05-07T09:09:49.416Z,22.54
2018-05-07T09:10:49.436Z,21.99
2018-05-07T09:11:49.446Z,22.22
2018-05-07T09:12:49.469Z,22.94
2018-05-07T09:13:49.481Z,23.60
2018-05-07T09:14:49.501Z,23.24
2018-05-07T09:15:49.515Z,23.23
2018-05-07T09:16:49.531Z,23.50
2018-05-07T09:17:49.543Z,23.40
2018-05-07T09:18:49.557Z,23.20
2018-05-07T09:19:49.573Z,22.65
2018-05-07T09:20:49.590Z,23.19
2018-05-07T09:21:49.607Z,23.07
2018-05-07T09:22:49.624Z,23.82
2018-05-07T09:23:49.630Z,23.87
2018-05-07T09:24:49.741Z,23.97
2018-05-07T09:25:49.668Z,24.38
2018-05-07T09:26:49.681Z,24.42
2018-05-07T09:27:49.693Z,24.38
2018-05-07T09:28:49.710Z,24.02
2018-05-07T09:29:49.726Z,22.90
2018-05-07T09:30:49.739Z,24.00
2018-05-07T09:31:49.755Z,24.44
2018-05-07T09:32:49.768Z,24.31
2018-05-07T09:33:49.787Z,24.31
2018-05-07T09:34:49.803Z,23.82
2018-05-07T09:35:49.814Z,23.82
2018-05-07T09:36:49.833Z,23.87
2018-05-07T09:37:49.848Z,24.35
2018-05-07T09:38:49.864Z,23.95
2018-05-07T09:39:49.881Z,24.42
2018-05-07T09:40:49.894Z,24.19
2018-05-07T09:41:49.908Z,24.23
2018-05-07T09:42:49.936Z,23.65
2018-05-07T09:43:49.933Z,24.23
2018-05-07T09:44:49.956Z,24.29
2018-05-07T09:45:49.974Z,24.98
2018-05-07T09:46:49.987Z,25.52
2018-05-07T09:47:50.003Z,24.95
2018-05-07T09:48:50.046Z,24.34
2018-05-07T09:49:50.037Z,24.79
2018-05-07T09:50:50.050Z,23.94
2018-05-07T09:51:50.072Z,24.05
2018-05-07T09:52:50.084Z,24.32
2018-05-07T09:53:50.101Z,24.61
2018-05-07T09:54:50.121Z,24.73
2018-05-07T09:55:50.151Z,24.77
2018-05-07T09:56:50.253Z,25.00
2018-05-07T09:57:50.162Z,25.56
2018-05-07T09:58:50.179Z,25.56
2018-05-07T09:59:50.199Z,24.77
2018-05-07T10:00:50.213Z,24.77
2018-05-07T10:01:50.239Z,25.19
2018-05-07T10:02:50.243Z,25.43
2018-05-07T10:03:50.263Z,24.87
2018-05-07T10:04:50.302Z,24.31
2018-05-07T10:05:50.283Z,24.20
2018-05-07T10:06:50.306Z,24.32
2018-05-07T10:07:50.328Z,25.05
2018-05-07T10:08:50.342Z,24.61
2018-05-07T10:09:50.360Z,23.82
2018-05-07T10:10:50.373Z,24.88
2018-05-07T10:11:50.390Z,24.95
2018-05-07T10:12:50.398Z,24.85
2018-05-07T10:13:50.419Z,24.76
2018-05-07T10:14:50.438Z,24.67
2018-05-07T10:15:50.454Z,24.52
2018-05-07T10:16:50.469Z,24.59
2018-05-07T10:17:50.487Z,24.07
2018-05-07T10:18:50.503Z,24.63
2018-05-07T10:19:50.517Z,25.07
2018-05-07T10:20:50.535Z,24.79
2018-05-07T10:21:50.553Z,24.77
2018-05-07T10:22:50.562Z,24.82
2018-05-07T10:23:50.576Z,24.88
2018-05-07T10:24:50.599Z,25.01
2018-05-07T10:25:50.625Z,25.13
2018-05-07T10:26:50.631Z,24.92
2018-05-07T10:27:50.645Z,25.31
2018-05-07T10:28:50.663Z,24.95
2018-05-07T10:29:50.685Z,24.98
2018-05-07T10:30:50.694Z,25.07
2018-05-07T10:31:50.744Z,25.10
2018-05-07T10:32:50.743Z,24.85
2018-05-07T10:33:50.736Z,24.41
2018-05-07T10:34:50.768Z,24.59
2018-05-07T10:35:50.782Z,24.64
2018-05-07T10:36:50.792Z,24.61
2018-05-07T10:37:50.856Z,25.20
2018-05-07T10:38:50.825Z,25.31
2018-05-07T10:39:50.837Z,25.32
2018-05-07T10:40:50.867Z,25.44
2018-05-07T10:41:50.878Z,24.83
2018-05-07T10:42:50.911Z,24.69
2018-05-07T10:43:50.918Z,25.22
2018-05-07T10:44:50.918Z,25.16
2018-05-07T10:45:50.939Z,26.31
2018-05-07T10:46:50.948Z,26.01
2018-05-07T10:47:50.963Z,25.62
2018-05-07T10:48:50.977Z,24.97
2018-05-07T10:49:51.009Z,25.01
2018-05-07T10:50:51.010Z,24.88
2018-05-07T10:51:51.029Z,25.77
2018-05-07T10:52:51.050Z,25.50
2018-05-07T10:53:51.060Z,25.46
2018-05-07T10:54:51.079Z,25.52
2018-05-07T10:55:51.091Z,25.86
2018-05-07T10:56:51.099Z,25.68
2018-05-07T10:57:51.116Z,26.18
2018-05-07T10:58:51.128Z,26.61
2018-05-07T10:59:51.156Z,26.69
2018-05-07T11:00:51.174Z,26.28
2018-05-07T11:01:51.193Z,25.72
2018-05-07T11:02:51.202Z,25.56
2018-05-07T11:03:51.231Z,25.64
2018-05-07T11:04:51.247Z,25.84
2018-05-07T11:05:51.271Z,25.87
2018-05-07T11:06:51.311Z,26.29
2018-05-07T11:07:51.279Z,25.89
2018-05-07T11:08:51.289Z,25.43
2018-05-07T11:09:51.316Z,25.67
2018-05-07T11:10:51.339Z,26.04
2018-05-07T11:11:51.348Z,25.91
2018-05-07T11:12:51.361Z,24.75
2018-05-07T11:13:51.377Z,25.01
2018-05-07T11:14:51.397Z,25.07
2018-05-07T11:15:51.410Z,25.16
2018-05-07T11:16:51.448Z,24.90
2018-05-07T11:17:51.448Z,24.85
2018-05-07T11:18:51.477Z,25.25
2018-05-07T11:19:51.578Z,25.49
2018-05-07T11:20:51.489Z,25.50
2018-05-07T11:21:51.507Z,25.34
2018-05-07T11:22:51.517Z,25.86
2018-05-07T11:23:51.536Z,26.20
2018-05-07T11:24:51.551Z,26.44
2018-05-07T11:25:51.567Z,26.43
2018-05-07T11:26:51.582Z,26.79
2018-05-07T11:27:51.609Z,26.74
2018-05-07T11:28:51.620Z,26.72
2018-05-07T11:29:51.629Z,27.23
2018-05-07T11:30:51.649Z,26.95
2018-05-07T11:31:51.660Z,26.49
2018-05-07T11:32:51.677Z,26.31
2018-05-07T11:33:51.706Z,26.39
2018-05-07T11:34:51.708Z,26.06
2018-05-07T11:35:51.723Z,25.84
2018-05-07T11:36:51.764Z,25.75
2018-05-07T11:37:51.754Z,25.57
2018-05-07T11:38:51.776Z,25.67
2018-05-07T11:39:51.804Z,25.35
2018-05-07T11:40:51.797Z,25.62
2018-05-07T11:41:51.818Z,25.07
2018-05-07T11:42:51.832Z,25.65
2018-05-07T11:43:51.850Z,25.83
2018-05-07T11:44:51.867Z,25.30
2018-05-07T11:45:51.885Z,25.50
2018-05-07T11:46:51.895Z,26.06
2018-05-07T11:47:51.926Z,25.75
2018-05-07T11:48:51.925Z,25.56
2018-05-07T11:49:51.945Z,25.22
2018-05-07T11:50:51.959Z,25.56
2018-05-07T11:51:51.974Z,25.64
2018-05-07T11:52:51.998Z,25.22
2018-05-07T11:53:52.011Z,25.17
2018-05-07T11:54:52.050Z,25.44
2018-05-07T11:55:52.941Z,25.44
2018-05-07T11:56:52.061Z,25.53
2018-05-07T11:57:52.070Z,25.50
2018-05-07T11:58:52.860Z,25.49
2018-05-07T11:59:52.865Z,25.42
2018-05-07T12:00:52.864Z,25.13
2018-05-07T12:01:52.134Z,25.28
2018-05-07T12:02:52.145Z,25.98
2018-05-07T12:03:52.168Z,26.20
2018-05-07T12:04:52.184Z,26.59
2018-05-07T12:05:52.191Z,26.58
2018-05-07T12:06:52.206Z,26.95
2018-05-07T12:07:52.954Z,27.01
2018-05-07T12:08:52.236Z,26.73
2018-05-07T12:09:52.255Z,25.56
2018-05-07T12:10:52.261Z,25.44
2018-05-07T12:11:52.302Z,25.84
2018-05-07T12:12:52.295Z,25.77
2018-05-07T12:13:52.319Z,25.91
2018-05-07T12:14:52.352Z,25.19
2018-05-07T12:15:52.493Z,25.59
2018-05-07T12:16:52.938Z,25.19
2018-05-07T12:17:52.364Z,25.62
2018-05-07T12:18:52.448Z,25.83
2018-05-07T12:19:52.940Z,26.11
2018-05-07T12:20:52.936Z,26.50
2018-05-07T12:21:52.434Z,25.84
2018-05-07T12:22:52.455Z,25.09
2018-05-07T12:23:52.463Z,24.77
2018-05-07T12:24:52.514Z,24.16
2018-05-07T12:25:53.442Z,23.58
2018-05-07T12:26:53.453Z,23.04
2018-05-07T12:27:53.446Z,23.15
2018-05-07T12:28:53.436Z,23.42
2018-05-07T12:29:52.536Z,23.24
2018-05-07T12:30:52.610Z,23.08
2018-05-07T12:31:52.678Z,23.02
2018-05-07T12:32:53.459Z,23.22
2018-05-07T12:33:52.588Z,23.50
2018-05-07T12:34:52.622Z,23.72
2018-05-07T12:35:53.441Z,23.24
2018-05-07T12:36:52.638Z,23.45
2018-05-07T12:37:52.637Z,23.32
2018-05-07T12:38:52.632Z,23.52
2018-05-07T12:39:52.646Z,23.52
2018-05-07T12:40:52.640Z,23.14
2018-05-07T12:41:52.649Z,23.20
2018-05-07T12:42:52.655Z,23.19
2018-05-07T12:43:52.660Z,23.09
2018-05-07T12:44:52.667Z,22.86
2018-05-07T12:45:52.675Z,23.12
2018-05-07T12:46:52.688Z,22.86
2018-05-07T12:47:52.690Z,22.93
2018-05-07T12:48:52.687Z,23.02
2018-05-07T12:49:52.691Z,22.99
2018-05-07T12:50:52.697Z,23.22
2018-05-07T12:51:52.702Z,23.17
2018-05-07T12:52:52.707Z,23.23
2018-05-07T12:53:52.710Z,23.38
2018-05-07T12:54:52.714Z,23.31
2018-05-07T12:55:52.732Z,23.32
2018-05-07T12:56:52.719Z,23.29
2018-05-07T12:57:52.718Z,23.05
2018-05-07T12:58:52.717Z,22.96
2018-05-07T12:59:52.799Z,22.87
2018-05-07T13:00:52.732Z,23.05
2018-05-07T13:01:52.731Z,23.02
2018-05-07T13:02:52.735Z,22.99
2018-05-07T13:03:52.739Z,23.35
2018-05-07T13:04:52.746Z,23.09
2018-05-07T13:05:52.809Z,23.14
2018-05-07T13:06:52.738Z,22.86
2018-05-07T13:07:52.751Z,23.01
2018-05-07T13:08:52.748Z,23.02
2018-05-07T13:09:52.753Z,23.05
2018-05-07T13:10:52.752Z,23.04
2018-05-07T13:11:52.756Z,23.31
2018-05-07T13:12:52.761Z,23.49
2018-05-07T13:13:52.757Z,23.32
2018-05-07T13:14:52.759Z,23.14
2018-05-07T13:15:52.772Z,23.02
2018-05-07T13:16:52.770Z,23.11
2018-05-07T13:17:52.767Z,23.24
2018-05-07T13:18:52.765Z,23.40
2018-05-07T13:19:52.759Z,23.47
2018-05-07T13:20:52.779Z,23.50
2018-05-07T13:21:52.774Z,23.39
2018-05-07T13:22:52.772Z,23.15
2018-05-07T13:23:52.776Z,23.19
2018-05-07T13:24:52.832Z,23.07
2018-05-07T13:25:52.791Z,23.23
2018-05-07T13:26:52.781Z,23.12
2018-05-07T13:27:52.784Z,23.12
2018-05-07T13:28:52.780Z,22.90
2018-05-07T13:29:52.791Z,23.05
2018-05-07T13:30:52.789Z,23.24
2018-05-07T13:31:52.791Z,23.02
2018-05-07T13:32:52.789Z,23.01
2018-05-07T13:33:52.782Z,23.02
2018-05-07T13:34:52.795Z,23.29
2018-05-07T13:35:52.793Z,23.35
2018-05-07T13:36:52.848Z,23.47
2018-05-07T13:37:52.795Z,23.45
2018-05-07T13:38:52.798Z,23.45
2018-05-07T13:39:52.799Z,23.35
2018-05-07T13:40:52.814Z,23.29
2018-05-07T13:41:52.807Z,23.39
2018-05-07T13:42:52.792Z,23.39
2018-05-07T13:43:52.802Z,23.35
2018-05-07T13:44:52.806Z,23.34
2018-05-07T13:45:52.812Z,23.29
2018-05-07T13:46:52.809Z,23.47
2018-05-07T13:47:52.817Z,23.53
2018-05-07T13:48:52.810Z,23.46
2018-05-07T13:49:52.816Z,23.52
2018-05-07T13:50:52.815Z,23.53
2018-05-07T13:51:52.817Z,23.47
2018-05-07T13:52:52.818Z,23.53
2018-05-07T13:53:52.817Z,23.45
2018-05-07T13:54:52.831Z,23.60
2018-05-07T13:55:52.824Z,23.82
2018-05-07T13:56:52.872Z,23.85
2018-05-07T13:57:52.820Z,23.75
2018-05-07T13:58:52.826Z,23.85
2018-05-07T13:59:52.839Z,23.83
2018-05-07T14:00:52.834Z,23.67
2018-05-07T14:01:52.836Z,23.61
2018-05-07T14:02:52.838Z,23.71
2018-05-07T14:03:52.832Z,23.60
2018-05-07T14:04:52.834Z,23.46
2018-05-07T14:05:52.839Z,23.23
2018-05-07T14:06:52.871Z,23.23
2018-05-07T14:07:52.845Z,23.22
2018-05-07T14:08:52.845Z,23.23
2018-05-07T14:09:52.859Z,23.15
2018-05-07T14:10:52.872Z,23.17
2018-05-07T14:11:52.873Z,23.29
2018-05-07T14:12:52.860Z,23.17
2018-05-07T14:13:52.858Z,22.99
2018-05-07T14:14:52.865Z,22.99
2018-05-07T14:15:52.861Z,22.97
2018-05-07T14:16:52.865Z,22.84
2018-05-07T14:17:52.867Z,22.93
2018-05-07T14:18:52.868Z,22.99
2018-05-07T14:19:52.877Z,23.08
2018-05-07T14:20:52.873Z,23.23
2018-05-07T14:21:52.880Z,23.42
2018-05-07T14:22:52.881Z,23.68
2018-05-07T14:23:52.883Z,23.49
2018-05-07T14:24:52.889Z,23.53
2018-05-07T14:25:52.891Z,23.62
2018-05-07T14:26:52.891Z,23.89
2018-05-07T14:27:52.887Z,24.01
2018-05-07T14:28:52.893Z,24.29
2018-05-07T14:29:52.901Z,24.47
2018-05-07T14:30:52.904Z,24.29
2018-05-07T14:31:52.906Z,23.68
2018-05-07T14:32:52.915Z,23.71
2018-05-07T14:33:52.912Z,23.68
2018-05-07T14:34:52.918Z,23.68
2018-05-07T14:35:52.919Z,23.76
2018-05-07T14:36:52.950Z,23.64
2018-05-07T14:37:52.941Z,23.72
2018-05-07T14:38:52.989Z,23.50
2018-05-07T14:39:52.935Z,23.53
2018-05-07T14:40:52.941Z,23.67